sensor_id;sensor_type;location;lat;lon;timestamp;pressure;altitude;pressure_sealevel;temperature;humidity
78354;BME280;67629;46.040;18.232;2024-02-14T00:00:11;100210.00;;;6.16;68.35
78354;BME280;67629;46.040;18.232;2024-02-14T00:00:45;100209.34;;;6.14;68.76
78354;BME280;67629;46.040;18.232;2024-02-14T00:01:16;100218.78;;;6.18;68.72
78354;BME280;67629;46.040;18.232;2024-02-14T00:01:46;100213.34;;;6.18;68.52
78354;BME280;67629;46.040;18.232;2024-02-14T00:02:17;100211.66;;;6.11;68.11
78354;BME280;67629;46.040;18.232;2024-02-14T00:02:47;100219.00;;;6.17;68.19
78354;BME280;67629;46.040;18.232;2024-02-14T00:03:22;100207.28;;;6.16;67.92
78354;BME280;67629;46.040;18.232;2024-02-14T00:03:53;100213.56;;;6.17;68.29
78354;BME280;67629;46.040;18.232;2024-02-14T00:04:24;100208.31;;;6.15;68.51
78354;BME280;67629;46.040;18.232;2024-02-14T00:04:54;100213.34;;;6.18;68.52
78354;BME280;67629;46.040;18.232;2024-02-14T00:05:25;100208.09;;;6.10;68.73
78354;BME280;67629;46.040;18.232;2024-02-14T00:05:56;100208.09;;;6.10;68.84
78354;BME280;67629;46.040;18.232;2024-02-14T00:06:27;100210.00;;;6.16;68.60
78354;BME280;67629;46.040;18.232;2024-02-14T00:06:58;100213.34;;;6.18;68.74
78354;BME280;67629;46.040;18.232;2024-02-14T00:07:28;100209.59;;;6.19;68.53
78354;BME280;67629;46.040;18.232;2024-02-14T00:08:54;100210.19;;;6.15;68.28
78354;BME280;67629;46.040;18.232;2024-02-14T00:09:25;100216.47;;;6.15;68.83
78354;BME280;67629;46.040;18.232;2024-02-14T00:09:56;100206.84;;;6.13;69.02
78354;BME280;67629;46.040;18.232;2024-02-14T00:10:27;100211.22;;;6.07;68.82
78354;BME280;67629;46.040;18.232;2024-02-14T00:10:57;100219.75;;;6.04;69.26
78354;BME280;67629;46.040;18.232;2024-02-14T00:11:28;100222.78;;;5.88;69.51
78354;BME280;67629;46.040;18.232;2024-02-14T00:11:59;100223.94;;;5.79;70.11
78354;BME280;67629;46.040;18.232;2024-02-14T00:12:29;100212.97;;;5.87;69.54
78354;BME280;67629;46.040;18.232;2024-02-14T00:13:00;100217.78;;;5.92;69.36
78354;BME280;67629;46.040;18.232;2024-02-14T00:13:30;100222.78;;;5.88;70.65
78354;BME280;67629;46.040;18.232;2024-02-14T00:14:04;100229.06;;;5.95;70.01
78354;BME280;67629;46.040;18.232;2024-02-14T00:14:35;100225.50;;;5.95;69.52
78354;BME280;67629;46.040;18.232;2024-02-14T00:15:06;100225.28;;;5.90;69.64
78354;BME280;67629;46.040;18.232;2024-02-14T00:15:37;100226.75;;;5.92;69.29
78354;BME280;67629;46.040;18.232;2024-02-14T00:17:14;100229.91;;;5.96;69.42
78354;BME280;67629;46.040;18.232;2024-02-14T00:20:17;100228.38;;;5.87;69.65
78354;BME280;67629;46.040;18.232;2024-02-14T00:22:37;100226.25;;;5.82;69.83
78354;BME280;67629;46.040;18.232;2024-02-14T00:24:12;100231.84;;;5.81;70.16
78354;BME280;67629;46.040;18.232;2024-02-14T00:26:05;100233.25;;;5.70;69.87
78354;BME280;67629;46.040;18.232;2024-02-14T00:28:04;100235.50;;;5.66;70.76
78354;BME280;67629;46.040;18.232;2024-02-14T00:30:53;100231.53;;;5.62;71.70
78354;BME280;67629;46.040;18.232;2024-02-14T00:32:46;100229.91;;;5.68;71.16
78354;BME280;67629;46.040;18.232;2024-02-14T00:34:16;100225.47;;;5.60;70.90
78354;BME280;67629;46.040;18.232;2024-02-14T00:34:46;100231.72;;;5.61;70.75
78354;BME280;67629;46.040;18.232;2024-02-14T00:35:19;100228.16;;;5.60;71.63
78354;BME280;67629;46.040;18.232;2024-02-14T00:35:49;100228.78;;;5.56;71.30
78354;BME280;67629;46.040;18.232;2024-02-14T00:36:20;100236.97;;;5.62;71.54
78354;BME280;67629;46.040;18.232;2024-02-14T00:36:50;100230.47;;;5.63;71.61
78354;BME280;67629;46.040;18.232;2024-02-14T00:37:21;100231.56;;;5.69;71.22
78354;BME280;67629;46.040;18.232;2024-02-14T00:37:52;100236.34;;;5.67;71.51
78354;BME280;67629;46.040;18.232;2024-02-14T00:38:23;100237.78;;;5.63;71.61
78354;BME280;67629;46.040;18.232;2024-02-14T00:38:53;100232.13;;;5.58;71.40
78354;BME280;67629;46.040;18.232;2024-02-14T00:39:24;100237.34;;;5.59;71.78
78354;BME280;67629;46.040;18.232;2024-02-14T00:39:55;100235.66;;;5.58;71.15
78354;BME280;67629;46.040;18.232;2024-02-14T00:40:27;100235.28;;;5.61;71.49
78354;BME280;67629;46.040;18.232;2024-02-14T00:40:58;100235.91;;;5.63;71.25
78354;BME280;67629;46.040;18.232;2024-02-14T00:41:29;100234.03;;;5.64;71.68
78354;BME280;67629;46.040;18.232;2024-02-14T00:42:00;100236.97;;;5.69;71.06
78354;BME280;67629;46.040;18.232;2024-02-14T00:42:30;100234.28;;;5.69;71.52
78354;BME280;67629;46.040;18.232;2024-02-14T00:43:35;100240.34;;;5.71;71.48
78354;BME280;67629;46.040;18.232;2024-02-14T00:44:06;100241.84;;;5.73;70.75
78354;BME280;67629;46.040;18.232;2024-02-14T00:44:37;100243.47;;;5.68;71.05
78354;BME280;67629;46.040;18.232;2024-02-14T00:45:08;100239.66;;;5.62;70.78
78354;BME280;67629;46.040;18.232;2024-02-14T00:45:41;100237.78;;;5.63;71.39
78354;BME280;67629;46.040;18.232;2024-02-14T00:46:16;100241.31;;;5.63;71.66
78354;BME280;67629;46.040;18.232;2024-02-14T00:46:47;100246.69;;;5.57;71.24
78354;BME280;67629;46.040;18.232;2024-02-14T00:47:21;100248.75;;;5.55;71.25
78354;BME280;67629;46.040;18.232;2024-02-14T00:47:51;100252.09;;;5.57;70.82
78354;BME280;67629;46.040;18.232;2024-02-14T00:48:22;100243.78;;;5.58;70.72
78354;BME280;67629;46.040;18.232;2024-02-14T00:48:53;100245.22;;;5.54;70.93
78354;BME280;67629;46.040;18.232;2024-02-14T00:49:25;100242.72;;;5.53;71.15
78354;BME280;67629;46.040;18.232;2024-02-14T00:49:56;100252.06;;;5.50;70.88
78354;BME280;67629;46.040;18.232;2024-02-14T00:50:27;100241.41;;;5.49;70.53
78354;BME280;67629;46.040;18.232;2024-02-14T00:50:57;100242.00;;;5.44;71.11
78354;BME280;67629;46.040;18.232;2024-02-14T00:51:29;100244.72;;;5.44;71.44
78354;BME280;67629;46.040;18.232;2024-02-14T00:52:00;100245.28;;;5.40;71.63
78354;BME280;67629;46.040;18.232;2024-02-14T00:52:30;100255.31;;;5.39;71.08
78354;BME280;67629;46.040;18.232;2024-02-14T00:54:27;100263.06;;;5.21;71.74
78354;BME280;67629;46.040;18.232;2024-02-14T00:54:58;100264.47;;;5.17;72.26
78354;BME280;67629;46.040;18.232;2024-02-14T00:55:29;100252.16;;;5.14;72.34
78354;BME280;67629;46.040;18.232;2024-02-14T00:55:59;100259.03;;;5.17;72.38
78354;BME280;67629;46.040;18.232;2024-02-14T00:56:30;100247.19;;;5.18;72.19
78354;BME280;67629;46.040;18.232;2024-02-14T00:57:00;100252.22;;;5.21;71.92
78354;BME280;67629;46.040;18.232;2024-02-14T00:57:31;100248.59;;;5.14;72.31
78354;BME280;67629;46.040;18.232;2024-02-14T00:58:02;100256.28;;;5.10;72.55
78354;BME280;67629;46.040;18.232;2024-02-14T00:58:32;100250.88;;;5.10;72.72
78354;BME280;67629;46.040;18.232;2024-02-14T00:59:03;100250.41;;;5.07;72.31
78354;BME280;67629;46.040;18.232;2024-02-14T00:59:34;100253.88;;;5.01;73.21
78354;BME280;67629;46.040;18.232;2024-02-14T01:00:52;100260.28;;;4.93;73.59
78354;BME280;67629;46.040;18.232;2024-02-14T01:01:23;100264.47;;;4.96;73.81
78354;BME280;67629;46.040;18.232;2024-02-14T01:01:53;100267.34;;;4.94;73.75
78354;BME280;67629;46.040;18.232;2024-02-14T01:02:24;100263.78;;;4.94;73.61
78354;BME280;67629;46.040;18.232;2024-02-14T01:02:56;100273.59;;;4.95;73.61
78354;BME280;67629;46.040;18.232;2024-02-14T01:03:28;100267.16;;;4.96;73.97
78354;BME280;67629;46.040;18.232;2024-02-14T01:03:58;100260.28;;;4.93;74.03
78354;BME280;67629;46.040;18.232;2024-02-14T01:04:29;100264.50;;;4.81;74.84
78354;BME280;67629;46.040;18.232;2024-02-14T01:04:59;100267.59;;;4.78;74.57
78354;BME280;67629;46.040;18.232;2024-02-14T01:05:30;100264.34;;;4.68;75.09
78354;BME280;67629;46.040;18.232;2024-02-14T01:06:01;100270.50;;;4.62;75.72
78354;BME280;67629;46.040;18.232;2024-02-14T01:06:31;100267.91;;;4.54;75.69
78354;BME280;67629;46.040;18.232;2024-02-14T01:07:03;100273.22;;;4.62;75.82
78354;BME280;67629;46.040;18.232;2024-02-14T01:07:33;100269.75;;;4.68;75.12
78354;BME280;67629;46.040;18.232;2024-02-14T01:08:05;100268.53;;;4.71;75.08
78354;BME280;67629;46.040;18.232;2024-02-14T01:08:35;100265.09;;;4.62;75.13
78354;BME280;67629;46.040;18.232;2024-02-14T01:09:06;100267.00;;;4.47;76.27
78354;BME280;67629;46.040;18.232;2024-02-14T01:10:09;100272.22;;;4.48;76.73
78354;BME280;67629;46.040;18.232;2024-02-14T01:10:40;100270.19;;;4.50;76.15
78354;BME280;67629;46.040;18.232;2024-02-14T01:11:10;100281.28;;;4.55;76.11
78354;BME280;67629;46.040;18.232;2024-02-14T01:11:41;100269.78;;;4.53;76.30
78354;BME280;67629;46.040;18.232;2024-02-14T01:12:12;100271.00;;;4.51;76.38
78354;BME280;67629;46.040;18.232;2024-02-14T01:12:42;100267.28;;;4.52;76.60
78354;BME280;67629;46.040;18.232;2024-02-14T01:13:13;100272.47;;;4.53;76.00
78354;BME280;67629;46.040;18.232;2024-02-14T01:13:43;100269.97;;;4.52;76.55
78354;BME280;67629;46.040;18.232;2024-02-14T01:14:14;100271.38;;;4.48;76.27
78354;BME280;67629;46.040;18.232;2024-02-14T01:14:45;100277.63;;;4.48;76.68
78354;BME280;67629;46.040;18.232;2024-02-14T01:15:15;100270.72;;;4.46;76.48
78354;BME280;67629;46.040;18.232;2024-02-14T01:15:46;100273.44;;;4.46;76.67
78354;BME280;67629;46.040;18.232;2024-02-14T01:16:17;100267.13;;;4.39;77.22
78354;BME280;67629;46.040;18.232;2024-02-14T01:16:48;100276.25;;;4.38;77.33
78354;BME280;67629;46.040;18.232;2024-02-14T01:17:19;100275.22;;;4.39;77.29
78354;BME280;67629;46.040;18.232;2024-02-14T01:17:49;100268.41;;;4.43;76.67
78354;BME280;67629;46.040;18.232;2024-02-14T01:18:20;100272.06;;;4.35;77.30
78354;BME280;67629;46.040;18.232;2024-02-14T01:18:51;100270.84;;;4.38;77.04
78354;BME280;67629;46.040;18.232;2024-02-14T01:19:21;100264.59;;;4.37;77.18
78354;BME280;67629;46.040;18.232;2024-02-14T01:27:09;100263.00;;;4.28;77.73
78354;BME280;67629;46.040;18.232;2024-02-14T01:27:39;100260.50;;;4.27;77.41
78354;BME280;67629;46.040;18.232;2024-02-14T01:28:11;100268.25;;;4.30;77.67
78354;BME280;67629;46.040;18.232;2024-02-14T01:28:42;100259.66;;;4.26;77.92
78354;BME280;67629;46.040;18.232;2024-02-14T01:29:15;100266.75;;;4.27;77.98
78354;BME280;67629;46.040;18.232;2024-02-14T01:29:47;100268.16;;;4.23;77.65
78354;BME280;67629;46.040;18.232;2024-02-14T01:30:18;100262.38;;;4.26;78.08
78354;BME280;67629;46.040;18.232;2024-02-14T01:30:49;100260.97;;;4.30;77.75
78354;BME280;67629;46.040;18.232;2024-02-14T01:31:21;100266.28;;;4.24;77.81
78354;BME280;67629;46.040;18.232;2024-02-14T01:31:52;100261.25;;;4.21;78.02
78354;BME280;67629;46.040;18.232;2024-02-14T01:32:23;100266.38;;;4.16;78.02
78354;BME280;67629;46.040;18.232;2024-02-14T01:32:54;100259.09;;;4.16;77.90
78354;BME280;67629;46.040;18.232;2024-02-14T01:33:24;100260.41;;;4.20;77.63
78354;BME280;67629;46.040;18.232;2024-02-14T01:33:56;100268.34;;;4.22;77.72
78354;BME280;67629;46.040;18.232;2024-02-14T01:34:26;100260.69;;;4.25;77.39
78354;BME280;67629;46.040;18.232;2024-02-14T01:34:58;100264.88;;;4.28;77.50
78354;BME280;67629;46.040;18.232;2024-02-14T01:35:31;100264.50;;;4.31;77.08
78354;BME280;67629;46.040;18.232;2024-02-14T01:36:01;100267.19;;;4.31;76.96
78354;BME280;67629;46.040;18.232;2024-02-14T01:36:32;100270.38;;;4.34;77.20
78354;BME280;67629;46.040;18.232;2024-02-14T01:42:16;100266.00;;;4.33;77.74
78354;BME280;67629;46.040;18.232;2024-02-14T01:42:47;100263.56;;;4.38;77.29
78354;BME280;67629;46.040;18.232;2024-02-14T01:43:19;100261.13;;;4.43;77.77
78354;BME280;67629;46.040;18.232;2024-02-14T01:43:50;100261.41;;;4.48;77.31
78354;BME280;67629;46.040;18.232;2024-02-14T01:44:21;100257.47;;;4.51;77.34
78354;BME280;67629;46.040;18.232;2024-02-14T01:44:52;100260.84;;;4.53;76.59
78354;BME280;67629;46.040;18.232;2024-02-14T01:45:23;100266.44;;;4.51;76.97
78354;BME280;67629;46.040;18.232;2024-02-14T01:45:54;100257.31;;;4.52;76.95
78354;BME280;67629;46.040;18.232;2024-02-14T01:46:25;100255.44;;;4.53;76.82
78354;BME280;67629;46.040;18.232;2024-02-14T01:46:55;100255.22;;;4.54;76.77
78354;BME280;67629;46.040;18.232;2024-02-14T01:47:26;100259.81;;;4.54;76.32
78354;BME280;67629;46.040;18.232;2024-02-14T01:47:57;100269.22;;;4.58;76.43
78354;BME280;67629;46.040;18.232;2024-02-14T01:48:28;100265.69;;;4.57;76.17
78354;BME280;67629;46.040;18.232;2024-02-14T01:48:59;100261.09;;;4.58;75.90
78354;BME280;67629;46.040;18.232;2024-02-14T01:49:30;100267.53;;;4.57;76.83
78354;BME280;67629;46.040;18.232;2024-02-14T01:50:01;100274.81;;;4.56;76.18
78354;BME280;67629;46.040;18.232;2024-02-14T01:50:34;100274.00;;;4.56;76.04
78354;BME280;67629;46.040;18.232;2024-02-14T01:51:06;100281.91;;;4.57;76.13
78354;BME280;67629;46.040;18.232;2024-02-14T01:51:40;100263.34;;;4.54;76.13
78354;BME280;67629;46.040;18.232;2024-02-14T01:52:13;100260.75;;;4.46;76.44
78354;BME280;67629;46.040;18.232;2024-02-14T01:52:44;100270.56;;;4.47;76.75
78354;BME280;67629;46.040;18.232;2024-02-14T01:53:15;100266.81;;;4.48;76.48
78354;BME280;67629;46.040;18.232;2024-02-14T01:53:46;100264.31;;;4.47;76.30
78354;BME280;67629;46.040;18.232;2024-02-14T01:54:17;100265.78;;;4.49;76.30
78354;BME280;67629;46.040;18.232;2024-02-14T01:54:49;100266.81;;;4.48;76.37
78354;BME280;67629;46.040;18.232;2024-02-14T01:55:21;100271.19;;;4.49;76.24
78354;BME280;67629;46.040;18.232;2024-02-14T01:55:52;100266.63;;;4.50;76.14
78354;BME280;67629;46.040;18.232;2024-02-14T01:56:23;100267.84;;;4.47;76.58
78354;BME280;67629;46.040;18.232;2024-02-14T01:56:54;100262.16;;;4.42;75.99
78354;BME280;67629;46.040;18.232;2024-02-14T01:57:25;100264.22;;;4.40;76.50
78354;BME280;67629;46.040;18.232;2024-02-14T01:57:56;100264.41;;;4.39;76.51
78354;BME280;67629;46.040;18.232;2024-02-14T01:58:29;100257.06;;;4.33;77.32
78354;BME280;67629;46.040;18.232;2024-02-14T01:59:15;100268.31;;;4.36;77.08
78354;BME280;67629;46.040;18.232;2024-02-14T02:00:04;100256.69;;;4.36;77.04
78354;BME280;67629;46.040;18.232;2024-02-14T02:00:53;100262.09;;;4.36;77.08
78354;BME280;67629;46.040;18.232;2024-02-14T02:01:44;100269.91;;;4.31;77.23
78354;BME280;67629;46.040;18.232;2024-02-14T02:02:30;100265.72;;;4.28;77.44
78354;BME280;67629;46.040;18.232;2024-02-14T02:03:00;100263.84;;;4.29;77.17
78354;BME280;67629;46.040;18.232;2024-02-14T02:03:46;100267.13;;;4.24;77.23
78354;BME280;67629;46.040;18.232;2024-02-14T02:04:32;100262.94;;;4.22;77.85
78354;BME280;67629;46.040;18.232;2024-02-14T02:05:18;100267.50;;;4.21;77.49
78354;BME280;67629;46.040;18.232;2024-02-14T02:06:07;100261.78;;;4.16;77.52
78354;BME280;67629;46.040;18.232;2024-02-14T02:06:53;100259.66;;;4.12;78.15
78354;BME280;67629;46.040;18.232;2024-02-14T02:07:43;100259.03;;;4.10;78.22
78354;BME280;67629;46.040;18.232;2024-02-14T02:08:29;100265.72;;;4.14;77.77
78354;BME280;67629;46.040;18.232;2024-02-14T02:09:15;100268.78;;;4.11;78.01
78354;BME280;67629;46.040;18.232;2024-02-14T02:09:46;100267.78;;;4.12;78.09
78354;BME280;67629;46.040;18.232;2024-02-14T02:10:17;100267.41;;;4.00;78.53
78354;BME280;67629;46.040;18.232;2024-02-14T02:11:03;100281.13;;;3.98;79.17
78354;BME280;67629;46.040;18.232;2024-02-14T02:11:50;100279.50;;;3.89;79.29
78354;BME280;67629;46.040;18.232;2024-02-14T02:12:20;100279.69;;;3.88;79.25
78354;BME280;67629;46.040;18.232;2024-02-14T02:12:51;100289.97;;;3.92;79.50
78354;BME280;67629;46.040;18.232;2024-02-14T02:13:21;100279.78;;;3.94;78.99
78354;BME280;67629;46.040;18.232;2024-02-14T02:13:52;100289.22;;;3.98;79.02
78354;BME280;67629;46.040;18.232;2024-02-14T02:14:23;100278.78;;;3.95;79.11
78354;BME280;67629;46.040;18.232;2024-02-14T02:14:53;100287.06;;;3.94;79.68
78354;BME280;67629;46.040;18.232;2024-02-14T02:15:40;100282.03;;;3.91;80.10
78354;BME280;67629;46.040;18.232;2024-02-14T02:16:11;100285.66;;;3.83;80.09
78354;BME280;67629;46.040;18.232;2024-02-14T02:16:58;100287.34;;;3.84;80.59
78354;BME280;67629;46.040;18.232;2024-02-14T02:17:43;100292.03;;;3.68;80.88
78354;BME280;67629;46.040;18.232;2024-02-14T02:18:31;100287.59;;;3.75;80.78
78354;BME280;67629;46.040;18.232;2024-02-14T02:19:17;100292.00;;;3.76;80.84
78354;BME280;67629;46.040;18.232;2024-02-14T02:19:48;100289.16;;;3.69;81.01
78354;BME280;67629;46.040;18.232;2024-02-14T02:20:34;100283.50;;;3.64;81.61
78354;BME280;67629;46.040;18.232;2024-02-14T02:21:06;100286.25;;;3.56;81.89
78354;BME280;67629;46.040;18.232;2024-02-14T02:21:52;100286.25;;;3.56;82.43
78354;BME280;67629;46.040;18.232;2024-02-14T02:22:44;100288.13;;;3.56;81.95
78354;BME280;67629;46.040;18.232;2024-02-14T02:23:30;100295.75;;;3.52;82.56
78354;BME280;67629;46.040;18.232;2024-02-14T02:24:16;100283.63;;;3.48;82.45
78354;BME280;67629;46.040;18.232;2024-02-14T02:25:04;100297.78;;;3.50;82.65
78354;BME280;67629;46.040;18.232;2024-02-14T02:25:52;100295.50;;;3.39;82.76
78354;BME280;67629;46.040;18.232;2024-02-14T02:26:23;100297.38;;;3.38;83.46
78354;BME280;67629;46.040;18.232;2024-02-14T02:26:53;100298.56;;;3.36;83.32
78354;BME280;67629;46.040;18.232;2024-02-14T02:27:24;100301.25;;;3.36;83.05
78354;BME280;67629;46.040;18.232;2024-02-14T02:27:55;100297.25;;;3.32;82.97
78354;BME280;67629;46.040;18.232;2024-02-14T02:28:27;100291.50;;;3.35;83.61
78354;BME280;67629;46.040;18.232;2024-02-14T02:28:57;100298.75;;;3.34;83.48
78354;BME280;67629;46.040;18.232;2024-02-14T02:29:28;100295.88;;;3.36;83.38
78354;BME280;67629;46.040;18.232;2024-02-14T02:29:58;100296.91;;;3.35;83.52
78354;BME280;67629;46.040;18.232;2024-02-14T02:30:31;100294.19;;;3.35;83.84
78354;BME280;67629;46.040;18.232;2024-02-14T02:31:02;100290.47;;;3.36;83.53
78354;BME280;67629;46.040;18.232;2024-02-14T02:31:33;100293.53;;;3.33;83.29
78354;BME280;67629;46.040;18.232;2024-02-14T02:32:04;100289.53;;;3.29;83.65
78354;BME280;67629;46.040;18.232;2024-02-14T02:32:36;100297.44;;;3.30;83.82
78354;BME280;67629;46.040;18.232;2024-02-14T02:33:08;100300.63;;;3.34;83.59
78354;BME280;67629;46.040;18.232;2024-02-14T02:34:09;100295.94;;;3.28;83.99
78354;BME280;67629;46.040;18.232;2024-02-14T02:34:41;100298.53;;;3.21;84.23
78354;BME280;67629;46.040;18.232;2024-02-14T02:35:11;100301.41;;;3.20;84.61
78354;BME280;67629;46.040;18.232;2024-02-14T02:35:42;100296.34;;;3.17;84.45
78354;BME280;67629;46.040;18.232;2024-02-14T02:36:15;100294.16;;;3.20;84.28
78354;BME280;67629;46.040;18.232;2024-02-14T02:36:46;100300.03;;;3.24;83.89
78354;BME280;67629;46.040;18.232;2024-02-14T02:37:20;100298.47;;;3.29;84.48
78354;BME280;67629;46.040;18.232;2024-02-14T02:37:51;100302.66;;;3.32;84.16
78354;BME280;67629;46.040;18.232;2024-02-14T02:38:22;100304.31;;;3.33;84.14
78354;BME280;67629;46.040;18.232;2024-02-14T02:38:53;100306.38;;;3.31;84.38
78354;BME280;67629;46.040;18.232;2024-02-14T02:39:23;100307.03;;;3.33;84.60
78354;BME280;67629;46.040;18.232;2024-02-14T02:39:55;100298.75;;;3.34;84.08
78354;BME280;67629;46.040;18.232;2024-02-14T02:40:26;100303.97;;;3.36;84.20
78354;BME280;67629;46.040;18.232;2024-02-14T02:40:57;100307.88;;;3.33;84.21
78354;BME280;67629;46.040;18.232;2024-02-14T02:41:28;100301.63;;;3.33;83.88
78354;BME280;67629;46.040;18.232;2024-02-14T02:41:59;100305.34;;;3.32;84.15
78354;BME280;67629;46.040;18.232;2024-02-14T02:42:29;100304.16;;;3.34;84.41
78354;BME280;67629;46.040;18.232;2024-02-14T02:43:00;100305.06;;;3.27;84.41
78354;BME280;67629;46.040;18.232;2024-02-14T02:43:31;100304.22;;;3.26;84.67
78354;BME280;67629;46.040;18.232;2024-02-14T02:49:15;100311.00;;;3.22;84.36
78354;BME280;67629;46.040;18.232;2024-02-14T02:49:46;100312.03;;;3.21;85.00
78354;BME280;67629;46.040;18.232;2024-02-14T02:50:17;100311.34;;;3.19;84.84
78354;BME280;67629;46.040;18.232;2024-02-14T02:50:48;100310.81;;;3.24;84.72
78354;BME280;67629;46.040;18.232;2024-02-14T02:51:20;100316.88;;;3.26;84.25
78354;BME280;67629;46.040;18.232;2024-02-14T02:51:50;100305.09;;;3.19;84.61
78354;BME280;67629;46.040;18.232;2024-02-14T02:52:22;100304.66;;;3.15;85.54
78354;BME280;67629;46.040;18.232;2024-02-14T02:52:53;100303.66;;;3.08;85.21
78354;BME280;67629;46.040;18.232;2024-02-14T02:53:25;100306.38;;;3.08;85.17
78354;BME280;67629;46.040;18.232;2024-02-14T02:53:56;100306.22;;;3.10;85.49
78354;BME280;67629;46.040;18.232;2024-02-14T02:54:26;100311.63;;;3.02;85.71
78354;BME280;67629;46.040;18.232;2024-02-14T02:54:57;100317.22;;;3.00;85.39
78354;BME280;67629;46.040;18.232;2024-02-14T02:55:28;100311.34;;;2.97;85.85
78354;BME280;67629;46.040;18.232;2024-02-14T02:55:58;100310.81;;;3.01;86.07
78354;BME280;67629;46.040;18.232;2024-02-14T02:56:30;100311.97;;;3.07;85.48
78354;BME280;67629;46.040;18.232;2024-02-14T02:57:00;100308.06;;;3.09;85.33
78354;BME280;67629;46.040;18.232;2024-02-14T02:57:33;100310.75;;;3.09;85.38
78354;BME280;67629;46.040;18.232;2024-02-14T02:58:07;100311.97;;;3.07;85.96
78354;BME280;67629;46.040;18.232;2024-02-14T02:58:38;100312.63;;;3.09;85.91
78354;BME280;67629;46.040;18.232;2024-02-14T02:59:09;100310.28;;;3.06;85.77
78354;BME280;67629;46.040;18.232;2024-02-14T02:59:39;100304.50;;;3.09;85.34
78354;BME280;67629;46.040;18.232;2024-02-14T03:00:13;100309.91;;;3.09;85.48
78354;BME280;67629;46.040;18.232;2024-02-14T03:00:44;100312.63;;;3.09;85.78
78354;BME280;67629;46.040;18.232;2024-02-14T03:01:14;100306.13;;;2.95;86.06
78354;BME280;67629;46.040;18.232;2024-02-14T03:01:45;100313.72;;;2.92;85.97
78354;BME280;67629;46.040;18.232;2024-02-14T03:02:16;100316.78;;;2.88;85.79
78354;BME280;67629;46.040;18.232;2024-02-14T03:02:47;100317.78;;;2.87;86.23
78354;BME280;67629;46.040;18.232;2024-02-14T03:03:17;100312.03;;;2.91;86.04
78354;BME280;67629;46.040;18.232;2024-02-14T03:03:48;100313.91;;;2.90;86.18
78354;BME280;67629;46.040;18.232;2024-02-14T03:04:19;100312.19;;;2.97;86.34
78354;BME280;67629;46.040;18.232;2024-02-14T03:04:49;100309.28;;;2.99;86.60
78354;BME280;67629;46.040;18.232;2024-02-14T03:05:36;100311.63;;;3.02;85.72
78354;BME280;67629;46.040;18.232;2024-02-14T03:06:22;100305.88;;;3.05;86.59
78354;BME280;67629;46.040;18.232;2024-02-14T03:06:53;100312.31;;;3.04;86.12
78354;BME280;67629;46.040;18.232;2024-02-14T03:07:39;100307.56;;;3.06;85.97
78354;BME280;67629;46.040;18.232;2024-02-14T03:08:24;100309.06;;;3.08;85.81
78354;BME280;67629;46.040;18.232;2024-02-14T03:09:11;100305.72;;;3.06;85.40
78354;BME280;67629;46.040;18.232;2024-02-14T03:09:42;100307.75;;;3.04;85.49
78354;BME280;67629;46.040;18.232;2024-02-14T03:10:28;100315.19;;;3.02;86.64
78354;BME280;67629;46.040;18.232;2024-02-14T03:11:15;100309.78;;;3.02;85.79
78354;BME280;67629;46.040;18.232;2024-02-14T03:12:04;100312.47;;;3.02;85.99
78354;BME280;67629;46.040;18.232;2024-02-14T03:12:51;100312.31;;;3.04;86.01
78354;BME280;67629;46.040;18.232;2024-02-14T03:13:36;100310.97;;;3.00;86.08
78354;BME280;67629;46.040;18.232;2024-02-14T03:14:11;100310.13;;;2.99;86.18
78354;BME280;67629;46.040;18.232;2024-02-14T03:14:57;100316.50;;;3.06;86.00
78354;BME280;67629;46.040;18.232;2024-02-14T03:15:44;100319.88;;;3.08;85.95
78354;BME280;67629;46.040;18.232;2024-02-14T03:18:24;100324.91;;;3.11;85.69
78354;BME280;67629;46.040;18.232;2024-02-14T03:20:41;100321.06;;;3.06;85.94
78354;BME280;67629;46.040;18.232;2024-02-14T03:23:32;100325.75;;;3.12;86.38
78354;BME280;67629;46.040;18.232;2024-02-14T03:26:53;100329.22;;;3.20;85.90
78354;BME280;67629;46.040;18.232;2024-02-14T03:28:31;100333.97;;;3.18;85.47
78354;BME280;67629;46.040;18.232;2024-02-14T03:30:08;100342.19;;;3.25;85.18
78354;BME280;67629;46.040;18.232;2024-02-14T03:32:40;100344.16;;;3.08;85.32
78354;BME280;67629;46.040;18.232;2024-02-14T03:33:11;100339.97;;;3.06;85.00
78354;BME280;67629;46.040;18.232;2024-02-14T03:33:42;100330.34;;;3.03;85.51
78354;BME280;67629;46.040;18.232;2024-02-14T03:34:14;100332.56;;;3.00;85.50
78354;BME280;67629;46.040;18.232;2024-02-14T03:34:44;100339.66;;;3.01;85.70
78354;BME280;67629;46.040;18.232;2024-02-14T03:35:15;100350.09;;;3.04;85.44
78354;BME280;67629;46.040;18.232;2024-02-14T03:35:46;100341.31;;;3.02;85.31
78354;BME280;67629;46.040;18.232;2024-02-14T03:36:18;100346.69;;;3.10;85.03
78354;BME280;67629;46.040;18.232;2024-02-14T03:36:48;100341.09;;;3.11;85.43
78354;BME280;67629;46.040;18.232;2024-02-14T03:37:19;100348.00;;;3.14;85.50
78354;BME280;67629;46.040;18.232;2024-02-14T03:37:49;100343.78;;;3.11;85.11
78354;BME280;67629;46.040;18.232;2024-02-14T03:38:29;100348.66;;;3.16;85.03
78354;BME280;67629;46.040;18.232;2024-02-14T03:39:01;100337.19;;;3.14;85.43
78354;BME280;67629;46.040;18.232;2024-02-14T03:39:34;100341.41;;;3.16;85.20
78354;BME280;67629;46.040;18.232;2024-02-14T03:40:05;100344.59;;;3.20;85.51
78354;BME280;67629;46.040;18.232;2024-02-14T03:40:39;100333.28;;;3.16;84.75
78354;BME280;67629;46.040;18.232;2024-02-14T03:42:57;100359.28;;;3.17;84.76
78354;BME280;67629;46.040;18.232;2024-02-14T03:44:53;100359.09;;;3.19;84.58
78354;BME280;67629;46.040;18.232;2024-02-14T03:46:56;100363.31;;;3.21;85.36
78354;BME280;67629;46.040;18.232;2024-02-14T03:49:31;100367.84;;;2.98;85.40